sensor_id;sensor_type;location;lat;lon;timestamp;P1;durP1;ratioP1;P2;durP2;ratioP2
14883;SDS011;7534;50.762;7.000;2022-11-20T00:01:30;18.90;;;11.97;;
14883;SDS011;7534;50.762;7.000;2022-11-20T00:03:56;19.20;;;12.67;;
14883;SDS011;7534;50.762;7.000;2022-11-20T00:06:24;19.37;;;12.47;;
14883;SDS011;7534;50.762;7.000;2022-11-20T00:08:51;17.10;;;11.97;;
14883;SDS011;7534;50.762;7.000;2022-11-20T00:11:21;18.87;;;12.40;;
14883;SDS011;7534;50.762;7.000;2022-11-20T00:13:51;17.40;;;12.17;;
14883;SDS011;7534;50.762;7.000;2022-11-20T00:16:20;19.70;;;13.00;;
14883;SDS011;7534;50.762;7.000;2022-11-20T00:18:49;18.57;;;12.67;;
14883;SDS011;7534;50.762;7.000;2022-11-20T00:21:17;19.13;;;12.43;;
14883;SDS011;7534;50.762;7.000;2022-11-20T00:23:50;18.23;;;11.93;;
14883;SDS011;7534;50.762;7.000;2022-11-20T00:26:19;19.33;;;13.13;;
14883;SDS011;7534;50.762;7.000;2022-11-20T00:28:52;18.53;;;12.07;;
14883;SDS011;7534;50.762;7.000;2022-11-20T00:31:20;19.53;;;12.77;;
14883;SDS011;7534;50.762;7.000;2022-11-20T00:33:47;20.03;;;13.13;;
14883;SDS011;7534;50.762;7.000;2022-11-20T00:36:14;19.10;;;12.10;;
14883;SDS011;7534;50.762;7.000;2022-11-20T00:38:43;20.50;;;12.73;;
14883;SDS011;7534;50.762;7.000;2022-11-20T00:41:10;18.73;;;12.17;;
14883;SDS011;7534;50.762;7.000;2022-11-20T00:43:39;19.23;;;12.43;;
14883;SDS011;7534;50.762;7.000;2022-11-20T00:46:07;19.43;;;13.23;;
14883;SDS011;7534;50.762;7.000;2022-11-20T00:48:42;21.40;;;13.00;;
14883;SDS011;7534;50.762;7.000;2022-11-20T00:51:09;20.47;;;12.97;;
14883;SDS011;7534;50.762;7.000;2022-11-20T00:53:38;19.03;;;12.47;;
14883;SDS011;7534;50.762;7.000;2022-11-20T00:56:05;20.07;;;12.67;;
14883;SDS011;7534;50.762;7.000;2022-11-20T00:58:35;19.13;;;12.77;;
14883;SDS011;7534;50.762;7.000;2022-11-20T01:01:14;20.50;;;13.23;;
14883;SDS011;7534;50.762;7.000;2022-11-20T01:03:42;19.47;;;12.27;;
14883;SDS011;7534;50.762;7.000;2022-11-20T01:06:12;18.60;;;12.63;;
14883;SDS011;7534;50.762;7.000;2022-11-20T01:08:46;18.47;;;12.30;;
14883;SDS011;7534;50.762;7.000;2022-11-20T01:11:14;19.57;;;12.87;;
14883;SDS011;7534;50.762;7.000;2022-11-20T01:13:47;20.80;;;12.93;;
14883;SDS011;7534;50.762;7.000;2022-11-20T01:16:17;19.17;;;12.47;;
14883;SDS011;7534;50.762;7.000;2022-11-20T01:18:47;18.17;;;12.20;;
14883;SDS011;7534;50.762;7.000;2022-11-20T01:21:18;17.20;;;12.30;;
14883;SDS011;7534;50.762;7.000;2022-11-20T01:23:48;17.53;;;11.83;;
14883;SDS011;7534;50.762;7.000;2022-11-20T01:26:16;20.03;;;12.90;;
14883;SDS011;7534;50.762;7.000;2022-11-20T01:28:48;20.13;;;12.20;;
14883;SDS011;7534;50.762;7.000;2022-11-20T01:31:17;18.40;;;12.50;;
14883;SDS011;7534;50.762;7.000;2022-11-20T01:33:56;19.00;;;13.07;;
14883;SDS011;7534;50.762;7.000;2022-11-20T01:36:26;18.17;;;12.30;;
14883;SDS011;7534;50.762;7.000;2022-11-20T01:39:00;16.23;;;10.97;;
14883;SDS011;7534;50.762;7.000;2022-11-20T01:41:32;19.57;;;12.20;;
14883;SDS011;7534;50.762;7.000;2022-11-20T01:44:19;18.00;;;11.97;;
14883;SDS011;7534;50.762;7.000;2022-11-20T01:47:08;17.13;;;11.73;;
14883;SDS011;7534;50.762;7.000;2022-11-20T01:49:40;17.63;;;11.33;;
14883;SDS011;7534;50.762;7.000;2022-11-20T01:55:01;21.70;;;12.97;;
14883;SDS011;7534;50.762;7.000;2022-11-20T01:57:34;18.80;;;12.60;;
14883;SDS011;7534;50.762;7.000;2022-11-20T02:00:07;16.43;;;11.30;;
14883;SDS011;7534;50.762;7.000;2022-11-20T02:02:40;16.93;;;11.37;;
14883;SDS011;7534;50.762;7.000;2022-11-20T02:08:06;15.40;;;11.07;;
14883;SDS011;7534;50.762;7.000;2022-11-20T02:10:32;17.37;;;11.07;;
14883;SDS011;7534;50.762;7.000;2022-11-20T02:12:58;16.93;;;10.87;;
14883;SDS011;7534;50.762;7.000;2022-11-20T02:15:43;15.47;;;10.70;;
14883;SDS011;7534;50.762;7.000;2022-11-20T02:18:10;16.57;;;10.83;;
14883;SDS011;7534;50.762;7.000;2022-11-20T02:20:44;17.00;;;11.77;;
14883;SDS011;7534;50.762;7.000;2022-11-20T02:29:48;19.77;;;11.73;;
14883;SDS011;7534;50.762;7.000;2022-11-20T02:32:23;19.17;;;12.47;;
14883;SDS011;7534;50.762;7.000;2022-11-20T02:34:50;19.63;;;12.17;;
14883;SDS011;7534;50.762;7.000;2022-11-20T02:37:16;20.50;;;12.73;;
14883;SDS011;7534;50.762;7.000;2022-11-20T02:39:43;18.80;;;12.50;;
14883;SDS011;7534;50.762;7.000;2022-11-20T02:42:12;18.83;;;12.03;;
14883;SDS011;7534;50.762;7.000;2022-11-20T02:44:37;20.87;;;13.20;;
14883;SDS011;7534;50.762;7.000;2022-11-20T02:47:03;20.63;;;12.33;;
14883;SDS011;7534;50.762;7.000;2022-11-20T02:49:29;18.97;;;12.43;;
14883;SDS011;7534;50.762;7.000;2022-11-20T02:51:55;19.53;;;12.70;;
14883;SDS011;7534;50.762;7.000;2022-11-20T02:54:20;20.10;;;12.60;;
14883;SDS011;7534;50.762;7.000;2022-11-20T02:56:47;19.37;;;12.83;;
14883;SDS011;7534;50.762;7.000;2022-11-20T02:59:13;21.60;;;13.57;;
14883;SDS011;7534;50.762;7.000;2022-11-20T03:01:38;19.83;;;13.47;;
14883;SDS011;7534;50.762;7.000;2022-11-20T03:04:04;20.63;;;13.03;;
14883;SDS011;7534;50.762;7.000;2022-11-20T03:06:32;21.13;;;14.13;;
14883;SDS011;7534;50.762;7.000;2022-11-20T03:09:00;18.63;;;12.23;;
14883;SDS011;7534;50.762;7.000;2022-11-20T03:11:26;20.90;;;13.43;;
14883;SDS011;7534;50.762;7.000;2022-11-20T03:13:51;22.87;;;13.73;;
14883;SDS011;7534;50.762;7.000;2022-11-20T03:16:20;20.73;;;12.90;;
14883;SDS011;7534;50.762;7.000;2022-11-20T03:18:48;20.37;;;13.43;;
14883;SDS011;7534;50.762;7.000;2022-11-20T03:21:16;21.07;;;13.80;;
14883;SDS011;7534;50.762;7.000;2022-11-20T03:23:42;20.27;;;13.07;;
14883;SDS011;7534;50.762;7.000;2022-11-20T03:28:36;20.77;;;13.10;;
14883;SDS011;7534;50.762;7.000;2022-11-20T03:31:06;19.47;;;12.30;;
14883;SDS011;7534;50.762;7.000;2022-11-20T03:33:38;22.43;;;13.77;;
14883;SDS011;7534;50.762;7.000;2022-11-20T03:36:07;20.53;;;13.13;;
14883;SDS011;7534;50.762;7.000;2022-11-20T03:38:36;23.67;;;13.97;;
14883;SDS011;7534;50.762;7.000;2022-11-20T03:41:12;20.90;;;13.33;;
14883;SDS011;7534;50.762;7.000;2022-11-20T03:43:51;22.37;;;13.77;;
14883;SDS011;7534;50.762;7.000;2022-11-20T03:46:22;20.87;;;13.27;;
14883;SDS011;7534;50.762;7.000;2022-11-20T03:48:48;23.77;;;14.03;;
14883;SDS011;7534;50.762;7.000;2022-11-20T03:53:55;23.30;;;14.03;;
14883;SDS011;7534;50.762;7.000;2022-11-20T03:56:24;22.30;;;12.97;;
14883;SDS011;7534;50.762;7.000;2022-11-20T03:58:55;23.77;;;14.37;;
14883;SDS011;7534;50.762;7.000;2022-11-20T04:01:22;23.37;;;14.07;;
14883;SDS011;7534;50.762;7.000;2022-11-20T04:03:55;24.00;;;13.93;;
14883;SDS011;7534;50.762;7.000;2022-11-20T04:06:27;24.60;;;14.27;;
14883;SDS011;7534;50.762;7.000;2022-11-20T04:08:58;22.87;;;12.83;;
14883;SDS011;7534;50.762;7.000;2022-11-20T04:11:25;22.63;;;13.03;;
14883;SDS011;7534;50.762;7.000;2022-11-20T04:13:54;22.00;;;12.50;;
14883;SDS011;7534;50.762;7.000;2022-11-20T04:16:29;20.37;;;12.73;;
14883;SDS011;7534;50.762;7.000;2022-11-20T04:19:02;23.83;;;13.13;;
14883;SDS011;7534;50.762;7.000;2022-11-20T04:21:31;20.50;;;12.20;;
14883;SDS011;7534;50.762;7.000;2022-11-20T04:23:57;23.17;;;13.03;;
14883;SDS011;7534;50.762;7.000;2022-11-20T04:26:24;21.00;;;12.20;;
14883;SDS011;7534;50.762;7.000;2022-11-20T04:28:53;20.63;;;12.87;;
14883;SDS011;7534;50.762;7.000;2022-11-20T04:31:25;20.27;;;12.40;;
14883;SDS011;7534;50.762;7.000;2022-11-20T04:33:53;21.43;;;13.00;;
14883;SDS011;7534;50.762;7.000;2022-11-20T04:36:20;21.43;;;12.50;;
14883;SDS011;7534;50.762;7.000;2022-11-20T04:38:52;21.40;;;12.73;;
14883;SDS011;7534;50.762;7.000;2022-11-20T04:41:22;19.10;;;12.23;;
14883;SDS011;7534;50.762;7.000;2022-11-20T04:43:53;20.73;;;12.53;;
14883;SDS011;7534;50.762;7.000;2022-11-20T04:46:25;21.23;;;12.37;;
14883;SDS011;7534;50.762;7.000;2022-11-20T04:48:52;19.97;;;12.23;;
14883;SDS011;7534;50.762;7.000;2022-11-20T04:51:18;20.97;;;12.47;;
14883;SDS011;7534;50.762;7.000;2022-11-20T04:53:44;20.90;;;13.00;;
14883;SDS011;7534;50.762;7.000;2022-11-20T04:56:10;19.43;;;12.30;;
14883;SDS011;7534;50.762;7.000;2022-11-20T04:58:38;21.00;;;12.20;;
14883;SDS011;7534;50.762;7.000;2022-11-20T05:01:12;22.10;;;12.57;;
14883;SDS011;7534;50.762;7.000;2022-11-20T05:03:41;21.00;;;12.60;;
14883;SDS011;7534;50.762;7.000;2022-11-20T05:06:10;20.70;;;13.30;;
14883;SDS011;7534;50.762;7.000;2022-11-20T05:08:38;22.53;;;13.87;;
14883;SDS011;7534;50.762;7.000;2022-11-20T05:11:05;21.77;;;13.20;;
14883;SDS011;7534;50.762;7.000;2022-11-20T05:13:37;22.73;;;14.03;;
14883;SDS011;7534;50.762;7.000;2022-11-20T05:16:04;21.83;;;13.07;;
14883;SDS011;7534;50.762;7.000;2022-11-20T05:18:33;21.17;;;12.67;;
14883;SDS011;7534;50.762;7.000;2022-11-20T05:21:00;23.27;;;13.97;;
14883;SDS011;7534;50.762;7.000;2022-11-20T05:23:26;21.60;;;13.03;;
14883;SDS011;7534;50.762;7.000;2022-11-20T05:25:55;23.37;;;13.23;;
14883;SDS011;7534;50.762;7.000;2022-11-20T05:28:22;23.60;;;14.60;;
14883;SDS011;7534;50.762;7.000;2022-11-20T05:30:49;22.07;;;13.10;;
14883;SDS011;7534;50.762;7.000;2022-11-20T05:33:15;23.73;;;13.93;;
14883;SDS011;7534;50.762;7.000;2022-11-20T05:35:43;23.87;;;14.07;;
14883;SDS011;7534;50.762;7.000;2022-11-20T05:38:09;23.00;;;13.43;;
14883;SDS011;7534;50.762;7.000;2022-11-20T05:40:35;24.23;;;13.87;;
14883;SDS011;7534;50.762;7.000;2022-11-20T05:43:01;25.10;;;14.13;;
14883;SDS011;7534;50.762;7.000;2022-11-20T05:45:27;24.73;;;13.80;;
14883;SDS011;7534;50.762;7.000;2022-11-20T05:47:53;23.40;;;13.77;;
14883;SDS011;7534;50.762;7.000;2022-11-20T05:50:19;25.20;;;14.17;;
14883;SDS011;7534;50.762;7.000;2022-11-20T05:52:45;24.67;;;14.50;;
14883;SDS011;7534;50.762;7.000;2022-11-20T05:55:20;23.47;;;13.67;;
14883;SDS011;7534;50.762;7.000;2022-11-20T05:57:47;24.40;;;14.13;;
14883;SDS011;7534;50.762;7.000;2022-11-20T06:00:12;21.00;;;13.20;;
14883;SDS011;7534;50.762;7.000;2022-11-20T06:02:40;23.33;;;14.03;;
14883;SDS011;7534;50.762;7.000;2022-11-20T06:05:07;25.47;;;14.53;;
14883;SDS011;7534;50.762;7.000;2022-11-20T06:07:35;23.93;;;13.23;;
14883;SDS011;7534;50.762;7.000;2022-11-20T06:10:05;22.70;;;13.63;;
14883;SDS011;7534;50.762;7.000;2022-11-20T06:12:32;23.50;;;13.13;;
14883;SDS011;7534;50.762;7.000;2022-11-20T06:14:58;25.23;;;14.40;;
14883;SDS011;7534;50.762;7.000;2022-11-20T06:17:26;22.37;;;12.87;;
14883;SDS011;7534;50.762;7.000;2022-11-20T06:19:53;22.50;;;14.03;;
14883;SDS011;7534;50.762;7.000;2022-11-20T06:22:20;21.53;;;13.07;;
14883;SDS011;7534;50.762;7.000;2022-11-20T06:24:47;24.17;;;13.60;;
14883;SDS011;7534;50.762;7.000;2022-11-20T06:27:14;24.37;;;14.60;;
14883;SDS011;7534;50.762;7.000;2022-11-20T06:29:42;23.37;;;13.23;;
14883;SDS011;7534;50.762;7.000;2022-11-20T06:32:10;22.57;;;14.37;;
14883;SDS011;7534;50.762;7.000;2022-11-20T06:34:39;26.30;;;14.93;;
14883;SDS011;7534;50.762;7.000;2022-11-20T06:37:04;23.27;;;13.47;;
14883;SDS011;7534;50.762;7.000;2022-11-20T06:39:30;22.80;;;14.27;;
14883;SDS011;7534;50.762;7.000;2022-11-20T06:41:57;24.43;;;14.20;;
14883;SDS011;7534;50.762;7.000;2022-11-20T06:44:33;22.77;;;13.83;;
14883;SDS011;7534;50.762;7.000;2022-11-20T06:47:08;23.33;;;14.47;;
14883;SDS011;7534;50.762;7.000;2022-11-20T06:49:46;22.23;;;13.60;;
14883;SDS011;7534;50.762;7.000;2022-11-20T06:52:12;23.17;;;13.73;;
14883;SDS011;7534;50.762;7.000;2022-11-20T06:54:41;23.50;;;13.90;;
14883;SDS011;7534;50.762;7.000;2022-11-20T06:57:07;23.57;;;14.20;;
14883;SDS011;7534;50.762;7.000;2022-11-20T06:59:32;23.43;;;14.73;;
14883;SDS011;7534;50.762;7.000;2022-11-20T07:02:00;23.03;;;13.90;;
14883;SDS011;7534;50.762;7.000;2022-11-20T07:04:28;23.77;;;14.90;;
14883;SDS011;7534;50.762;7.000;2022-11-20T07:06:53;23.77;;;14.00;;
14883;SDS011;7534;50.762;7.000;2022-11-20T07:09:20;24.23;;;14.90;;
14883;SDS011;7534;50.762;7.000;2022-11-20T07:11:46;21.57;;;13.37;;
14883;SDS011;7534;50.762;7.000;2022-11-20T07:14:13;20.57;;;13.43;;
14883;SDS011;7534;50.762;7.000;2022-11-20T07:16:39;19.77;;;12.80;;
14883;SDS011;7534;50.762;7.000;2022-11-20T07:19:05;19.30;;;12.70;;
14883;SDS011;7534;50.762;7.000;2022-11-20T07:21:31;20.40;;;12.50;;
14883;SDS011;7534;50.762;7.000;2022-11-20T07:23:56;19.60;;;12.83;;
14883;SDS011;7534;50.762;7.000;2022-11-20T07:26:22;20.20;;;12.50;;
14883;SDS011;7534;50.762;7.000;2022-11-20T07:28:48;21.47;;;12.87;;
14883;SDS011;7534;50.762;7.000;2022-11-20T07:31:13;20.00;;;12.77;;
14883;SDS011;7534;50.762;7.000;2022-11-20T07:33:39;20.07;;;13.10;;
14883;SDS011;7534;50.762;7.000;2022-11-20T07:36:06;20.47;;;13.30;;
14883;SDS011;7534;50.762;7.000;2022-11-20T07:38:32;20.33;;;12.27;;
14883;SDS011;7534;50.762;7.000;2022-11-20T07:40:58;21.17;;;13.40;;
14883;SDS011;7534;50.762;7.000;2022-11-20T07:43:26;19.47;;;12.77;;
14883;SDS011;7534;50.762;7.000;2022-11-20T07:45:56;19.50;;;12.80;;
14883;SDS011;7534;50.762;7.000;2022-11-20T07:48:23;22.97;;;13.83;;
14883;SDS011;7534;50.762;7.000;2022-11-20T07:50:52;20.30;;;12.97;;
14883;SDS011;7534;50.762;7.000;2022-11-20T07:53:19;21.63;;;13.00;;
14883;SDS011;7534;50.762;7.000;2022-11-20T07:55:46;21.03;;;12.60;;
14883;SDS011;7534;50.762;7.000;2022-11-20T07:58:13;19.37;;;12.23;;
14883;SDS011;7534;50.762;7.000;2022-11-20T08:00:39;18.67;;;12.67;;
14883;SDS011;7534;50.762;7.000;2022-11-20T08:03:06;19.70;;;13.03;;
14883;SDS011;7534;50.762;7.000;2022-11-20T08:05:32;19.97;;;12.60;;
14883;SDS011;7534;50.762;7.000;2022-11-20T08:07:58;20.53;;;12.83;;
14883;SDS011;7534;50.762;7.000;2022-11-20T08:10:24;19.17;;;12.63;;
14883;SDS011;7534;50.762;7.000;2022-11-20T08:12:50;19.77;;;13.87;;
14883;SDS011;7534;50.762;7.000;2022-11-20T08:15:38;18.87;;;12.10;;
14883;SDS011;7534;50.762;7.000;2022-11-20T08:18:05;19.07;;;12.70;;
14883;SDS011;7534;50.762;7.000;2022-11-20T08:20:34;21.73;;;14.07;;
14883;SDS011;7534;50.762;7.000;2022-11-20T08:23:01;20.23;;;13.67;;
14883;SDS011;7534;50.762;7.000;2022-11-20T08:25:30;20.07;;;13.40;;
14883;SDS011;7534;50.762;7.000;2022-11-20T08:27:59;22.17;;;18.23;;
14883;SDS011;7534;50.762;7.000;2022-11-20T08:30:29;22.00;;;15.10;;
14883;SDS011;7534;50.762;7.000;2022-11-20T08:33:00;20.73;;;13.83;;
14883;SDS011;7534;50.762;7.000;2022-11-20T08:35:37;21.00;;;13.73;;
14883;SDS011;7534;50.762;7.000;2022-11-20T08:38:05;20.67;;;13.50;;
14883;SDS011;7534;50.762;7.000;2022-11-20T08:40:32;21.50;;;14.10;;
14883;SDS011;7534;50.762;7.000;2022-11-20T08:42:58;19.07;;;13.00;;
14883;SDS011;7534;50.762;7.000;2022-11-20T08:45:27;21.53;;;13.83;;
14883;SDS011;7534;50.762;7.000;2022-11-20T08:47:52;19.50;;;13.20;;
14883;SDS011;7534;50.762;7.000;2022-11-20T08:50:18;20.00;;;13.73;;
14883;SDS011;7534;50.762;7.000;2022-11-20T08:52:44;18.80;;;13.03;;
14883;SDS011;7534;50.762;7.000;2022-11-20T08:55:10;18.90;;;13.40;;
14883;SDS011;7534;50.762;7.000;2022-11-20T08:57:36;21.30;;;14.00;;
14883;SDS011;7534;50.762;7.000;2022-11-20T09:00:04;22.00;;;14.87;;
14883;SDS011;7534;50.762;7.000;2022-11-20T09:02:32;21.23;;;14.57;;
14883;SDS011;7534;50.762;7.000;2022-11-20T09:04:58;21.47;;;13.90;;
14883;SDS011;7534;50.762;7.000;2022-11-20T09:07:34;21.67;;;14.77;;
14883;SDS011;7534;50.762;7.000;2022-11-20T09:10:01;21.17;;;14.83;;
14883;SDS011;7534;50.762;7.000;2022-11-20T09:12:27;21.23;;;14.20;;
14883;SDS011;7534;50.762;7.000;2022-11-20T09:14:52;21.13;;;14.73;;
14883;SDS011;7534;50.762;7.000;2022-11-20T09:17:18;22.23;;;14.80;;
14883;SDS011;7534;50.762;7.000;2022-11-20T09:19:45;21.90;;;14.63;;
14883;SDS011;7534;50.762;7.000;2022-11-20T09:22:11;22.30;;;14.63;;
14883;SDS011;7534;50.762;7.000;2022-11-20T09:24:36;22.57;;;14.57;;
14883;SDS011;7534;50.762;7.000;2022-11-20T09:27:03;23.87;;;15.00;;
14883;SDS011;7534;50.762;7.000;2022-11-20T09:29:30;22.53;;;15.07;;
14883;SDS011;7534;50.762;7.000;2022-11-20T09:31:55;22.73;;;14.10;;
14883;SDS011;7534;50.762;7.000;2022-11-20T09:34:21;22.43;;;14.60;;
14883;SDS011;7534;50.762;7.000;2022-11-20T09:36:47;23.23;;;14.30;;
14883;SDS011;7534;50.762;7.000;2022-11-20T09:39:12;24.63;;;19.27;;
14883;SDS011;7534;50.762;7.000;2022-11-20T09:55:23;20.20;;;13.73;;
14883;SDS011;7534;50.762;7.000;2022-11-20T09:57:50;18.87;;;13.13;;
14883;SDS011;7534;50.762;7.000;2022-11-20T10:00:17;17.90;;;12.57;;
14883;SDS011;7534;50.762;7.000;2022-11-20T10:03:00;19.03;;;13.60;;
14883;SDS011;7534;50.762;7.000;2022-11-20T10:11:00;16.17;;;11.37;;
14883;SDS011;7534;50.762;7.000;2022-11-20T10:13:51;15.70;;;11.40;;
14883;SDS011;7534;50.762;7.000;2022-11-20T10:17:03;16.93;;;11.70;;
14883;SDS011;7534;50.762;7.000;2022-11-20T10:23:22;18.50;;;12.33;;
14883;SDS011;7534;50.762;7.000;2022-11-20T10:29:16;15.33;;;11.80;;
14883;SDS011;7534;50.762;7.000;2022-11-20T10:31:48;17.37;;;12.10;;
14883;SDS011;7534;50.762;7.000;2022-11-20T10:34:47;15.53;;;11.23;;
14883;SDS011;7534;50.762;7.000;2022-11-20T10:37:30;17.23;;;11.67;;
14883;SDS011;7534;50.762;7.000;2022-11-20T10:42:59;18.40;;;12.70;;
14883;SDS011;7534;50.762;7.000;2022-11-20T10:45:34;18.80;;;12.83;;
14883;SDS011;7534;50.762;7.000;2022-11-20T10:48:24;17.40;;;12.07;;
14883;SDS011;7534;50.762;7.000;2022-11-20T10:54:05;19.03;;;12.77;;
14883;SDS011;7534;50.762;7.000;2022-11-20T10:56:51;17.33;;;11.50;;
14883;SDS011;7534;50.762;7.000;2022-11-20T10:59:35;18.47;;;11.40;;
14883;SDS011;7534;50.762;7.000;2022-11-20T11:02:23;16.10;;;11.13;;
14883;SDS011;7534;50.762;7.000;2022-11-20T11:04:58;18.67;;;11.77;;
14883;SDS011;7534;50.762;7.000;2022-11-20T11:07:38;19.20;;;13.07;;
14883;SDS011;7534;50.762;7.000;2022-11-20T11:10:51;19.10;;;12.17;;
14883;SDS011;7534;50.762;7.000;2022-11-20T11:13:21;17.07;;;11.13;;
14883;SDS011;7534;50.762;7.000;2022-11-20T11:15:54;17.23;;;11.60;;
14883;SDS011;7534;50.762;7.000;2022-11-20T11:18:26;16.17;;;10.77;;
14883;SDS011;7534;50.762;7.000;2022-11-20T11:20:57;17.60;;;11.07;;
14883;SDS011;7534;50.762;7.000;2022-11-20T11:23:38;16.20;;;10.77;;
14883;SDS011;7534;50.762;7.000;2022-11-20T11:26:18;17.13;;;11.27;;
14883;SDS011;7534;50.762;7.000;2022-11-20T11:29:01;16.60;;;11.80;;
14883;SDS011;7534;50.762;7.000;2022-11-20T11:31:33;16.90;;;10.60;;
14883;SDS011;7534;50.762;7.000;2022-11-20T11:34:04;16.40;;;11.47;;
14883;SDS011;7534;50.762;7.000;2022-11-20T11:36:30;17.30;;;11.13;;
14883;SDS011;7534;50.762;7.000;2022-11-20T11:39:00;15.50;;;11.07;;
14883;SDS011;7534;50.762;7.000;2022-11-20T11:41:32;17.30;;;10.87;;
14883;SDS011;7534;50.762;7.000;2022-11-20T11:44:14;16.07;;;10.87;;
14883;SDS011;7534;50.762;7.000;2022-11-20T11:47:05;17.30;;;11.17;;
14883;SDS011;7534;50.762;7.000;2022-11-20T11:49:46;15.53;;;10.97;;
14883;SDS011;7534;50.762;7.000;2022-11-20T11:52:18;15.30;;;10.80;;
14883;SDS011;7534;50.762;7.000;2022-11-20T12:00:21;16.80;;;10.60;;
14883;SDS011;7534;50.762;7.000;2022-11-20T12:03:00;15.97;;;10.57;;
14883;SDS011;7534;50.762;7.000;2022-11-20T12:05:47;14.13;;;10.07;;
14883;SDS011;7534;50.762;7.000;2022-11-20T12:08:27;16.47;;;10.47;;
14883;SDS011;7534;50.762;7.000;2022-11-20T12:11:13;16.77;;;11.17;;
14883;SDS011;7534;50.762;7.000;2022-11-20T12:13:56;14.30;;;9.70;;
14883;SDS011;7534;50.762;7.000;2022-11-20T12:16:36;14.00;;;10.10;;
14883;SDS011;7534;50.762;7.000;2022-11-20T12:19:07;16.53;;;10.97;;
14883;SDS011;7534;50.762;7.000;2022-11-20T12:21:54;14.10;;;10.30;;
14883;SDS011;7534;50.762;7.000;2022-11-20T12:30:08;18.40;;;11.90;;
14883;SDS011;7534;50.762;7.000;2022-11-20T12:44:41;18.70;;;12.20;;
14883;SDS011;7534;50.762;7.000;2022-11-20T12:58:54;16.03;;;10.83;;
14883;SDS011;7534;50.762;7.000;2022-11-20T13:01:55;16.27;;;11.00;;
14883;SDS011;7534;50.762;7.000;2022-11-20T13:07:29;19.13;;;12.57;;
14883;SDS011;7534;50.762;7.000;2022-11-20T13:09:58;19.13;;;12.80;;
14883;SDS011;7534;50.762;7.000;2022-11-20T13:17:55;18.07;;;12.17;;
14883;SDS011;7534;50.762;7.000;2022-11-20T13:20:26;21.97;;;13.47;;
14883;SDS011;7534;50.762;7.000;2022-11-20T13:22:54;18.83;;;12.23;;
14883;SDS011;7534;50.762;7.000;2022-11-20T13:27:57;18.07;;;11.57;;
14883;SDS011;7534;50.762;7.000;2022-11-20T13:30:26;16.93;;;11.27;;
14883;SDS011;7534;50.762;7.000;2022-11-20T13:33:06;17.77;;;11.60;;
14883;SDS011;7534;50.762;7.000;2022-11-20T13:38:47;17.20;;;11.60;;
14883;SDS011;7534;50.762;7.000;2022-11-20T13:41:31;19.73;;;11.90;;
14883;SDS011;7534;50.762;7.000;2022-11-20T13:44:15;18.03;;;11.80;;
14883;SDS011;7534;50.762;7.000;2022-11-20T13:46:50;19.43;;;11.53;;
14883;SDS011;7534;50.762;7.000;2022-11-20T13:52:14;18.63;;;11.53;;
14883;SDS011;7534;50.762;7.000;2022-11-20T14:01:24;17.47;;;11.47;;
14883;SDS011;7534;50.762;7.000;2022-11-20T14:03:54;18.93;;;11.87;;
14883;SDS011;7534;50.762;7.000;2022-11-20T14:06:30;18.27;;;11.30;;
14883;SDS011;7534;50.762;7.000;2022-11-20T14:09:03;17.10;;;11.67;;
14883;SDS011;7534;50.762;7.000;2022-11-20T14:11:29;16.20;;;10.70;;
14883;SDS011;7534;50.762;7.000;2022-11-20T14:14:02;16.57;;;10.90;;
14883;SDS011;7534;50.762;7.000;2022-11-20T14:16:30;15.83;;;10.63;;
14883;SDS011;7534;50.762;7.000;2022-11-20T14:21:45;17.23;;;11.07;;
14883;SDS011;7534;50.762;7.000;2022-11-20T14:24:12;14.63;;;11.03;;
14883;SDS011;7534;50.762;7.000;2022-11-20T14:26:45;17.60;;;12.13;;
14883;SDS011;7534;50.762;7.000;2022-11-20T14:29:16;16.93;;;10.90;;
14883;SDS011;7534;50.762;7.000;2022-11-20T14:31:51;16.13;;;10.43;;
14883;SDS011;7534;50.762;7.000;2022-11-20T14:34:25;14.77;;;10.40;;
14883;SDS011;7534;50.762;7.000;2022-11-20T14:36:57;16.17;;;10.67;;
14883;SDS011;7534;50.762;7.000;2022-11-20T14:39:41;20.00;;;11.57;;
14883;SDS011;7534;50.762;7.000;2022-11-20T14:42:18;15.17;;;10.37;;
14883;SDS011;7534;50.762;7.000;2022-11-20T14:44:51;14.23;;;10.37;;
14883;SDS011;7534;50.762;7.000;2022-11-20T14:47:23;17.40;;;14.57;;
14883;SDS011;7534;50.762;7.000;2022-11-20T14:49:52;17.00;;;11.77;;
14883;SDS011;7534;50.762;7.000;2022-11-20T14:52:24;17.03;;;11.80;;
14883;SDS011;7534;50.762;7.000;2022-11-20T14:54:56;15.50;;;10.97;;
14883;SDS011;7534;50.762;7.000;2022-11-20T15:00:04;15.53;;;11.10;;
14883;SDS011;7534;50.762;7.000;2022-11-20T15:02:30;16.77;;;10.43;;
14883;SDS011;7534;50.762;7.000;2022-11-20T15:04:58;15.73;;;10.07;;
14883;SDS011;7534;50.762;7.000;2022-11-20T15:07:33;16.80;;;10.47;;
14883;SDS011;7534;50.762;7.000;2022-11-20T15:10:21;14.63;;;10.17;;
14883;SDS011;7534;50.762;7.000;2022-11-20T15:12:53;17.27;;;11.80;;
14883;SDS011;7534;50.762;7.000;2022-11-20T15:18:14;14.80;;;9.83;;
14883;SDS011;7534;50.762;7.000;2022-11-20T15:20:44;5.17;;;4.00;;
14883;SDS011;7534;50.762;7.000;2022-11-20T15:23:11;10.37;;;5.50;;
14883;SDS011;7534;50.762;7.000;2022-11-20T15:25:43;6.60;;;3.20;;
14883;SDS011;7534;50.762;7.000;2022-11-20T15:28:33;4.73;;;3.60;;
14883;SDS011;7534;50.762;7.000;2022-11-20T15:31:02;5.73;;;3.00;;
14883;SDS011;7534;50.762;7.000;2022-11-20T15:33:34;3.60;;;2.30;;
14883;SDS011;7534;50.762;7.000;2022-11-20T15:36:02;3.73;;;2.60;;
14883;SDS011;7534;50.762;7.000;2022-11-20T15:38:32;4.50;;;2.57;;
14883;SDS011;7534;50.762;7.000;2022-11-20T15:40:58;4.73;;;2.53;;
14883;SDS011;7534;50.762;7.000;2022-11-20T15:48:41;4.47;;;2.00;;
14883;SDS011;7534;50.762;7.000;2022-11-20T15:51:18;3.10;;;1.90;;
14883;SDS011;7534;50.762;7.000;2022-11-20T15:53:52;2.60;;;2.37;;
14883;SDS011;7534;50.762;7.000;2022-11-20T15:56:20;2.83;;;2.50;;
14883;SDS011;7534;50.762;7.000;2022-11-20T15:58:47;6.83;;;3.10;;
14883;SDS011;7534;50.762;7.000;2022-11-20T16:01:17;5.60;;;3.40;;
14883;SDS011;7534;50.762;7.000;2022-11-20T16:03:49;5.63;;;3.90;;
14883;SDS011;7534;50.762;7.000;2022-11-20T16:06:18;4.73;;;3.37;;
14883;SDS011;7534;50.762;7.000;2022-11-20T16:08:45;6.33;;;3.80;;
14883;SDS011;7534;50.762;7.000;2022-11-20T16:11:15;5.13;;;4.17;;
14883;SDS011;7534;50.762;7.000;2022-11-20T16:13:42;5.30;;;3.70;;
14883;SDS011;7534;50.762;7.000;2022-11-20T16:16:32;5.47;;;3.83;;
14883;SDS011;7534;50.762;7.000;2022-11-20T16:19:04;3.70;;;3.40;;
14883;SDS011;7534;50.762;7.000;2022-11-20T16:21:31;5.87;;;3.80;;
14883;SDS011;7534;50.762;7.000;2022-11-20T16:24:03;5.47;;;3.77;;
14883;SDS011;7534;50.762;7.000;2022-11-20T16:26:32;4.93;;;3.73;;
14883;SDS011;7534;50.762;7.000;2022-11-20T16:28:59;5.13;;;3.93;;
14883;SDS011;7534;50.762;7.000;2022-11-20T16:31:27;4.90;;;3.70;;
14883;SDS011;7534;50.762;7.000;2022-11-20T16:33:59;5.57;;;3.47;;
14883;SDS011;7534;50.762;7.000;2022-11-20T16:36:30;5.77;;;4.77;;
14883;SDS011;7534;50.762;7.000;2022-11-20T16:38:59;6.37;;;4.93;;
14883;SDS011;7534;50.762;7.000;2022-11-20T16:41:33;5.57;;;4.10;;
14883;SDS011;7534;50.762;7.000;2022-11-20T16:44:00;4.50;;;4.07;;
14883;SDS011;7534;50.762;7.000;2022-11-20T16:46:32;5.50;;;4.10;;
14883;SDS011;7534;50.762;7.000;2022-11-20T16:49:05;6.20;;;3.87;;
14883;SDS011;7534;50.762;7.000;2022-11-20T16:51:36;5.53;;;4.87;;
14883;SDS011;7534;50.762;7.000;2022-11-20T16:54:05;6.60;;;5.30;;
14883;SDS011;7534;50.762;7.000;2022-11-20T16:56:35;6.23;;;5.57;;
14883;SDS011;7534;50.762;7.000;2022-11-20T16:59:03;7.03;;;5.30;;
14883;SDS011;7534;50.762;7.000;2022-11-20T17:01:30;6.20;;;5.60;;